Terminal Aerodrome Forecast
Issued by NWS Newport/Morehead City, NC

Home | Current Version | Previous Version | Graphics & Text | Print | Product List | Glossary On
Versions: 1 2 3 4 5 6 7 8 9 10 11 12 13 14 15 16 17
000
FTUS42 KMHX 270537
TAFEWN
TAF
KEWN 270537Z 2706/2806 VRB04KT P6SM VCSH SCT030 BKN100
      TEMPO 2706/2710 BKN020
     FM271400 19012KT P6SM VCTS SCT030 BKN050CB
     FM271800 19012G20KT P6SM VCTS BKN035CB
     FM280000 21010KT P6SM VCTS BKN030CB=

USA.gov is the U.S. government's official web portal to all federal, state and local government web resources and services.